Time;durP1;ratioP1;P1;durP2;ratioP2;P2;SDS_P1;SDS_P2;PMS_P1;PMS_P2;Temp;Humidity;BMP_temperature;BMP_pressure;BME280_temperature;BME280_humidity;BME280_pressure;Samples;Min_cycle;Max_cycle;Signal;HPM_P1;HPM_P2
2022/06/22 00:00:20;;;;;;;3.17;1.92;;;17.50;99.90;;;17.82;77.27;100613.34;5069314;29;20056;-74
2022/06/22 00:02:55;;;;;;;2.25;1.80;;;17.40;99.90;;;17.76;77.30;100608.94;5062346;29;20508;-74
2022/06/22 00:05:34;;;;;;;2.03;1.83;;;17.40;99.90;;;17.71;77.35;100610.69;5069413;29;20093;-74
2022/06/22 00:08:14;;;;;;;2.55;1.58;;;17.30;99.90;;;17.65;77.72;100610.63;5069458;29;20059;-75
2022/06/22 00:10:53;;;;;;;4.47;2.00;;;17.30;99.90;;;17.60;77.92;100599.19;5069321;29;20063;-74
2022/06/22 00:13:29;;;;;;;2.78;1.90;;;17.20;99.90;;;17.53;78.14;100594.78;5069420;29;20494;-74
2022/06/22 00:16:04;;;;;;;3.08;1.77;;;17.20;99.90;;;17.51;78.32;100607.06;5068919;29;20498;-74
2022/06/22 00:18:43;;;;;;;2.20;1.83;;;17.10;99.90;;;17.46;78.55;100607.03;5069154;29;20177;-74
2022/06/22 00:21:23;;;;;;;3.22;1.75;;;17.10;99.90;;;17.46;78.65;100612.31;5061153;29;20045;-74
2022/06/22 00:23:59;;;;;;;1.88;1.48;;;17.10;99.90;;;17.49;78.53;100614.97;5069187;29;20131;-74
2022/06/22 00:26:34;;;;;;;3.55;1.83;;;17.10;99.90;;;17.51;78.00;100607.94;5068750;29;20055;-74
2022/06/22 00:29:23;;;;;;;3.75;1.75;;;17.10;99.90;;;17.49;77.37;100587.75;5069178;29;20056;-73
2022/06/22 00:32:04;;;;;;;2.35;1.73;;;17.10;99.90;;;17.48;77.11;100573.69;5069090;29;20553;-75
2022/06/22 00:34:36;;;;;;;2.65;1.92;;;17.10;99.90;;;17.45;77.13;100586.84;5068944;29;20053;-75
2022/06/22 00:37:16;;;;;;;1.70;1.60;;;17.10;99.90;;;17.39;77.43;100586.81;5068542;29;20054;-74
2022/06/22 00:39:54;;;;;;;1.98;1.40;;;17.00;99.90;;;17.32;77.69;100590.31;5068837;29;20418;-75
2022/06/22 00:42:39;;;;;;;2.92;1.60;;;17.00;99.90;;;17.26;78.13;100590.28;5068931;29;20048;-74
2022/06/22 00:45:22;;;;;;;2.25;1.80;;;16.90;99.90;;;17.19;78.48;100599.91;5068375;29;20066;-75
2022/06/22 00:47:58;;;;;;;1.77;1.60;;;16.90;99.90;;;17.16;78.84;100593.75;5068597;29;20049;-73
2022/06/22 00:50:40;;;;;;;2.00;1.50;;;16.80;99.90;;;17.13;78.85;100588.47;5068506;29;20054;-74
2022/06/22 00:53:19;;;;;;;3.05;1.70;;;16.80;99.90;;;17.10;79.04;100589.34;5068402;29;20053;-74
2022/06/22 00:55:58;;;;;;;3.30;1.85;;;16.70;99.90;;;17.04;79.34;100584.91;5068244;29;20052;-74
2022/06/22 00:58:35;;;;;;;1.83;1.58;;;16.70;99.90;;;17.02;79.55;100588.44;5068542;29;20486;-74
2022/06/22 01:01:17;;;;;;;2.03;1.70;;;16.70;99.90;;;17.01;79.41;100587.53;5067895;29;20418;-74
2022/06/22 01:03:55;;;;;;;;;;;16.60;99.90;;;17.00;78.83;100593.66;5068668;29;20063;-74
2022/06/22 01:06:37;;;;;;;2.38;1.52;;;16.70;99.90;;;16.99;78.41;100591.91;5068008;29;19923;-75
2022/06/22 01:09:17;;;;;;;3.63;2.03;;;16.60;99.90;;;16.97;78.27;100596.28;5068260;29;20071;-75
2022/06/22 01:15:07;;;;;;;3.50;2.03;;;16.60;99.90;;;16.92;77.21;100590.13;5067873;29;20059;-74
2022/06/22 01:17:51;;;;;;;3.45;1.90;;;16.60;99.90;;;16.89;76.98;100584.84;5067895;29;20521;-74
2022/06/22 01:20:33;;;;;;;1.98;1.77;;;16.60;99.90;;;16.86;76.97;100574.28;5068070;29;20612;-73
2022/06/22 01:23:31;;;;;;;3.22;1.88;;;16.50;99.90;;;16.80;77.31;100568.97;5067809;29;20067;-74
2022/06/22 01:26:44;;;;;;;2.88;1.88;;;16.50;99.90;;;16.73;77.65;100564.56;5067594;29;20053;-74
2022/06/22 01:29:21;;;;;;;2.40;1.88;;;16.40;99.90;;;16.66;78.15;100573.25;5023562;29;20056;-74
2022/06/22 01:32:00;;;;;;;2.15;1.70;;;16.30;99.90;;;16.63;78.66;100575.88;5067771;29;20493;-74
2022/06/22 01:34:36;;;;;;;2.00;1.55;;;16.30;99.90;;;16.63;78.80;100574.13;5067593;29;20063;-73
2022/06/22 01:37:17;;;;;;;3.05;1.63;;;16.30;99.90;;;16.59;78.70;100584.59;5067558;29;20059;-74
2022/06/22 01:39:49;;;;;;;2.33;1.80;;;16.20;99.90;;;16.52;78.98;100587.19;5067691;29;20061;-74
2022/06/22 01:42:31;;;;;;;2.47;1.58;;;16.20;99.90;;;16.45;79.25;100588.03;5067672;29;20053;-74
2022/06/22 01:45:14;;;;;;;2.45;1.73;;;16.20;99.90;;;16.41;79.44;100591.50;5067417;29;20056;-74
2022/06/22 01:47:51;;;;;;;2.03;1.55;;;16.10;99.90;;;16.38;79.92;100580.97;5067198;29;20052;-74
2022/06/22 01:50:30;;;;;;;5.25;2.10;;;16.10;99.90;;;16.32;80.13;100570.38;5067100;29;20059;-74
2022/06/22 01:53:12;;;;;;;2.58;2.03;;;16.00;99.90;;;16.30;80.31;100569.50;5067400;29;20062;-74
2022/06/22 01:55:53;;;;;;;5.70;2.35;;;16.00;99.90;;;16.27;80.59;100567.72;5067164;29;20565;-74
2022/06/22 01:58:52;;;;;;;2.90;2.05;;;15.90;99.90;;;16.25;80.60;100573.84;5067262;29;20060;-75
2022/06/22 02:01:37;;;;;;;2.65;2.20;;;15.90;99.90;;;16.24;80.55;100572.97;5067113;29;20064;-74
2022/06/22 02:04:21;;;;;;;2.88;1.98;;;16.00;99.90;;;16.21;80.62;100561.50;5067173;29;20076;-74
2022/06/22 02:10:39;;;;;;;4.60;2.42;;;15.90;99.90;;;16.13;81.24;100563.22;5006946;29;20165;-74
2022/06/22 02:13:25;;;;;;;3.70;2.40;;;15.80;99.90;;;16.08;80.94;100562.28;5003758;29;20056;-74
2022/06/22 02:16:05;;;;;;;3.97;2.40;;;15.80;99.90;;;16.02;81.03;100566.63;5055959;29;20054;-74
2022/06/22 02:18:44;;;;;;;4.03;2.20;;;15.70;99.90;;;15.98;81.41;100558.72;5059211;29;20064;-74
2022/06/22 02:21:24;;;;;;;4.03;2.35;;;15.70;99.90;;;15.92;81.66;100559.53;5066847;29;20131;-73
2022/06/22 02:24:04;;;;;;;2.20;1.92;;;15.60;99.90;;;15.87;81.77;100563.84;5066940;29;20528;-74
2022/06/22 02:26:45;;;;;;;3.45;2.10;;;15.60;99.90;;;15.83;82.06;100569.94;5066415;29;20056;-76
2022/06/22 02:29:23;;;;;;;3.70;2.15;;;15.60;99.90;;;15.79;82.34;100560.28;5067193;29;20139;-74
2022/06/22 02:32:00;;;;;;;3.88;2.20;;;15.50;99.90;;;15.79;82.39;100554.16;5066965;29;20140;-74
2022/06/22 02:34:35;;;;;;;5.25;2.25;;;15.50;99.90;;;15.77;82.70;100542.72;5066900;29;20064;-74
2022/06/22 02:37:09;;;;;;;4.10;2.03;;;15.50;99.90;;;15.77;82.67;100554.09;5066817;29;20055;-74
2022/06/22 02:39:47;;;;;;;;;;;15.50;99.90;;;15.74;82.80;100554.97;5067459;29;20163;-74
2022/06/22 02:45:13;;;;;;;3.42;2.25;;;15.40;99.90;;;15.68;82.62;100546.13;5066895;29;20068;-74
2022/06/22 02:47:50;;;;;;;3.25;2.20;;;15.40;99.90;;;15.64;82.84;100547.84;5066948;29;20707;-74
2022/06/22 02:50:34;;;;;;;4.15;2.50;;;15.40;99.90;;;15.62;82.69;100546.06;5066513;29;20052;-74
2022/06/22 02:53:17;;;;;;;2.50;1.98;;;15.30;99.90;;;15.61;82.59;100550.41;5066685;29;20063;-74
2022/06/22 02:55:50;;;;;;;2.42;2.08;;;15.30;99.90;;;15.63;82.50;100540.84;5066332;29;20447;-73
2022/06/22 02:58:26;;;;;;;3.22;2.33;;;15.30;99.90;;;15.62;82.33;100544.31;5066742;29;20053;-74
2022/06/22 03:01:01;;;;;;;4.55;2.10;;;15.30;99.90;;;15.63;82.56;100547.84;5065742;29;20052;-74
2022/06/22 03:03:35;;;;;;;3.88;2.33;;;15.30;99.90;;;15.62;82.29;100538.19;5066560;29;20057;-74
2022/06/22 03:06:14;;;;;;;4.88;2.65;;;15.30;99.90;;;15.60;82.10;100529.41;5066214;29;20081;-74
2022/06/22 03:08:46;;;;;;;3.22;2.03;;;15.30;99.90;;;15.56;81.68;100532.84;5066614;29;20139;-74
2022/06/22 03:11:19;;;;;;;4.60;2.60;;;15.20;99.90;;;15.52;81.33;100531.94;5066517;29;20634;-75
2022/06/22 03:13:57;;;;;;;4.68;2.75;;;15.30;99.90;;;15.50;80.88;100548.53;5066700;29;20135;-74
2022/06/22 03:16:35;;;;;;;6.32;2.88;;;15.20;99.90;;;15.46;80.89;100538.00;5065887;29;20063;-74
2022/06/22 03:19:13;;;;;;;3.53;2.20;;;15.20;99.90;;;15.44;81.00;100542.34;5066494;29;20513;-74
2022/06/22 03:21:46;;;;;;;3.70;2.45;;;15.20;99.90;;;15.43;80.88;100543.22;5066239;29;20143;-74
2022/06/22 03:24:36;;;;;;;2.95;2.40;;;15.10;99.90;;;15.42;81.48;100546.72;5066212;29;20052;-74
2022/06/22 03:27:18;;;;;;;4.47;2.17;;;15.20;99.90;;;15.42;81.66;100553.72;5066206;29;20060;-74
2022/06/22 03:29:54;;;;;;;3.88;2.45;;;15.20;99.90;;;15.41;81.89;100547.59;5065990;29;20505;-73
2022/06/22 03:32:31;;;;;;;4.47;2.30;;;15.20;99.90;;;15.44;81.65;100557.22;5065821;29;20158;-73
2022/06/22 03:35:09;;;;;;;2.67;2.15;;;15.20;99.90;;;15.44;81.98;100565.09;5065493;29;20057;-74
2022/06/22 03:37:49;;;;;;;4.22;2.45;;;15.20;99.90;;;15.46;82.35;100569.53;5065704;29;20055;-74
2022/06/22 03:40:25;;;;;;;4.35;2.63;;;15.20;99.90;;;15.49;82.32;100568.66;5065896;29;20057;-74
2022/06/22 03:43:07;;;;;;;3.90;2.35;;;15.20;99.90;;;15.52;82.52;100568.72;5065784;29;20044;-74
2022/06/22 03:45:44;;;;;;;4.55;2.58;;;15.30;99.90;;;15.55;82.60;100573.13;5065523;29;20398;-74
2022/06/22 03:50:54;;;;;;;6.03;3.00;;;15.30;99.90;;;15.62;83.07;100585.50;5059439;29;20497;-67
2022/06/22 03:53:38;;;;;;;4.30;2.63;;;15.30;99.90;;;15.65;83.14;100589.03;5065591;29;20058;-67
2022/06/22 03:56:15;;;;;;;7.35;3.20;;;15.40;99.90;;;15.66;83.29;100582.91;5065273;29;20425;-68
2022/06/22 03:58:51;;;;;;;7.80;2.97;;;15.40;99.90;;;15.69;83.64;100571.53;5065563;29;20550;-67
2022/06/22 04:01:24;;;;;;;5.30;3.03;;;15.40;99.90;;;15.72;83.83;100571.59;5065400;29;20063;-67
2022/06/22 04:03:57;;;;;;;6.03;2.92;;;15.40;99.90;;;15.78;83.70;100570.75;5068354;29;20044;-66
2022/06/22 04:06:33;;;;;;;5.25;2.67;;;15.50;99.90;;;15.79;83.69;100565.53;5065103;29;20052;-67
2022/06/22 04:09:15;;;;;;;4.60;2.70;;;15.50;99.90;;;15.82;83.87;100567.28;5065533;29;20055;-68
2022/06/22 04:11:56;;;;;;;4.57;2.33;;;15.50;99.90;;;15.87;83.71;100566.47;5066384;29;20409;-67
2022/06/22 04:14:35;;;;;;;5.45;3.13;;;15.60;99.90;;;15.91;83.75;100557.78;5069288;29;20168;-67
2022/06/22 04:17:17;;;;;;;4.53;2.83;;;15.60;99.90;;;15.94;83.78;100549.03;5068917;29;20052;-67
2022/06/22 04:20:01;;;;;;;4.85;3.35;;;15.60;99.90;;;15.98;83.65;100556.97;5076303;29;20128;-67
2022/06/22 04:22:37;;;;;;;5.30;3.17;;;15.70;99.90;;;16.01;83.91;100559.59;5069137;29;20121;-67
2022/06/22 04:25:20;;;;;;;3.42;2.40;;;15.80;99.90;;;16.06;83.73;100562.28;5068862;29;20387;-67
2022/06/22 04:27:53;;;;;;;5.15;3.00;;;15.80;99.90;;;16.10;83.87;100568.44;5068771;29;20052;-67
2022/06/22 04:30:30;;;;;;;5.03;2.78;;;15.80;99.90;;;16.15;83.98;100562.34;5068636;29;20057;-67
2022/06/22 04:33:08;;;;;;;7.57;4.00;;;15.90;99.90;;;16.17;83.99;100562.34;5068935;29;20059;-67
2022/06/22 04:35:48;;;;;;;6.93;3.40;;;15.90;99.90;;;16.21;84.01;100561.50;5068438;29;20056;-68
2022/06/22 04:38:26;;;;;;;4.70;3.15;;;15.90;99.90;;;16.22;83.79;100563.28;5068697;29;20060;-67
2022/06/22 04:41:05;;;;;;;4.90;2.92;;;15.90;99.90;;;16.28;83.62;100579.97;5068736;29;20056;-67
2022/06/22 04:43:38;;;;;;;6.05;2.80;;;16.00;99.90;;;16.32;83.61;100570.38;5068585;29;20147;-68
2022/06/22 04:46:17;;;;;;;4.60;2.75;;;16.00;99.90;;;16.39;83.81;100560.78;5068486;29;20074;-66
2022/06/22 04:48:50;;;;;;;6.35;3.42;;;16.10;99.90;;;16.35;83.31;100557.25;5068478;29;20048;-68
2022/06/22 04:51:28;;;;;;;4.85;2.85;;;16.10;99.90;;;16.47;83.64;100549.44;5068539;29;20512;-67
2022/06/22 04:54:08;;;;;;;4.45;2.70;;;16.20;99.90;;;16.64;82.97;100553.94;5068593;29;20064;-68
2022/06/22 04:56:46;;;;;;;5.55;2.90;;;16.30;99.90;;;16.78;82.26;100561.09;5068209;29;20062;-67
2022/06/22 04:59:19;;;;;;;4.18;2.65;;;16.50;99.90;;;16.90;81.15;100565.53;5068229;29;20048;-68
2022/06/22 05:01:55;;;;;;;3.60;2.67;;;16.60;99.90;;;16.95;80.34;100569.09;5068381;29;20516;-67
2022/06/22 05:04:30;;;;;;;4.30;3.50;;;16.60;99.90;;;17.04;80.00;100574.38;5075352;29;20056;-67
2022/06/22 05:07:22;;;;;;;4.30;2.67;;;16.70;99.90;;;17.10;79.30;100589.34;5062263;29;20047;-67
2022/06/22 05:10:05;;;;;;;4.53;2.78;;;16.80;99.90;;;17.12;79.57;100586.72;5048556;29;20496;-66
2022/06/22 05:12:48;;;;;;;4.78;2.80;;;16.80;99.90;;;17.27;79.22;100594.66;5048921;29;20081;-68
2022/06/22 05:15:27;;;;;;;4.97;3.03;;;17.00;99.90;;;17.40;78.79;100583.31;5048555;29;20068;-67
2022/06/22 05:18:03;;;;;;;5.82;3.13;;;17.10;99.90;;;17.64;78.22;100588.66;5048957;29;20052;-68
2022/06/22 05:20:41;;;;;;;3.58;2.72;;;17.30;99.90;;;17.87;77.18;100586.13;5048849;29;20406;-67
2022/06/22 05:23:13;;;;;;;5.82;2.63;;;17.50;99.90;;;18.13;76.40;100585.28;5047652;29;20057;-66
2022/06/22 05:25:49;;;;;;;3.92;2.78;;;17.70;99.90;;;18.37;75.10;100587.03;5048336;29;20053;-68
2022/06/22 05:28:32;;;;;;;4.07;2.40;;;17.90;99.90;;;18.71;74.28;100598.44;5048327;29;20049;-68
2022/06/22 05:31:08;;;;;;;4.97;2.80;;;18.20;99.90;;;19.03;72.38;100601.03;5048283;29;20057;-68
2022/06/22 05:33:46;;;;;;;4.47;2.58;;;18.40;99.90;;;19.37;70.57;100595.66;5048528;29;20064;-68
2022/06/22 05:36:24;;;;;;;3.65;2.58;;;18.70;99.90;;;19.64;69.13;100599.94;5048019;29;20097;-68
2022/06/22 05:39:00;;;;;;;5.80;3.15;;;19.00;99.90;;;19.88;68.12;100604.19;5047922;29;20049;-68
2022/06/22 05:41:36;;;;;;;5.15;3.08;;;19.20;99.90;;;19.91;67.03;100602.44;5048320;29;20056;-68
2022/06/22 05:44:13;;;;;;;4.45;2.88;;;19.40;99.90;;;19.93;66.13;100611.22;5048197;29;20145;-68
2022/06/22 05:46:51;;;;;;;7.80;3.13;;;19.40;99.90;;;19.87;64.82;100597.16;5047882;29;20517;-68
2022/06/22 05:49:29;;;;;;;6.75;3.58;;;19.40;99.90;;;19.81;64.37;100611.28;5056239;29;20101;-68
2022/06/22 05:52:06;;;;;;;5.50;3.35;;;19.40;99.60;;;19.74;64.15;100602.50;5067432;29;20407;-69
2022/06/22 05:54:42;;;;;;;5.25;2.97;;;19.30;99.40;;;19.77;65.25;100607.81;5067179;29;20082;-67
2022/06/22 05:57:22;;;;;;;7.50;3.50;;;19.30;99.70;;;19.97;65.34;100614.75;5067230;29;20490;-68
2022/06/22 06:00:00;;;;;;;8.48;3.80;;;19.40;99.90;;;20.39;64.05;100613.53;5066334;29;20151;-66
2022/06/22 06:02:40;;;;;;;7.68;3.85;;;19.70;99.60;;;20.74;62.37;100621.22;5067114;29;20056;-66
2022/06/22 06:05:21;;;;;;;9.98;3.78;;;20.00;98.90;;;20.92;61.78;100619.25;5065966;29;20493;-66
2022/06/22 06:07:57;;;;;;;9.55;3.92;;;20.30;98.50;;;20.84;61.82;100614.91;5067068;29;20383;-65
2022/06/22 06:10:34;;;;;;;5.75;3.47;;;20.30;98.20;;;20.62;62.13;100625.75;5067083;29;20059;-65
2022/06/22 06:13:22;;;;;;;5.45;3.65;;;20.20;98.10;;;20.43;62.68;100619.69;5066677;29;20057;-65
2022/06/22 06:16:00;;;;;;;6.40;3.50;;;20.10;98.20;;;20.32;63.20;100623.28;5059131;29;20429;-65
2022/06/22 06:18:36;;;;;;;6.78;3.90;;;19.90;98.40;;;20.20;63.52;100628.66;5064110;29;20051;-65
2022/06/22 06:21:15;;;;;;;7.15;3.67;;;19.80;98.50;;;20.09;64.03;100617.31;5066024;29;20418;-66
2022/06/22 06:23:54;;;;;;;8.27;3.50;;;19.70;98.70;;;20.18;64.98;100609.28;5066818;29;20049;-65
2022/06/22 06:29:36;;;;;;;7.05;3.63;;;19.90;99.30;;;20.92;62.71;100616.59;5066112;29;20421;-56
2022/06/22 06:32:31;;;;;;;6.40;3.88;;;20.20;98.60;;;21.33;61.76;100625.03;5066785;29;20123;-56
2022/06/22 06:35:11;;;;;;;7.53;3.72;;;20.60;98.40;;;21.57;60.21;100612.34;5065365;29;20132;-59
2022/06/22 06:37:58;;;;;;;6.05;3.55;;;20.80;97.50;;;21.97;58.83;100612.66;5064256;29;20041;-57
2022/06/22 06:40:39;;;;;;;7.05;3.83;;;21.20;96.90;;;22.26;57.18;100598.09;5066606;29;20066;-56
2022/06/22 06:43:26;;;;;;;7.38;3.63;;;21.50;95.80;;;22.59;56.47;100599.31;5066302;29;20429;-57
2022/06/22 06:46:01;;;;;;;6.95;3.42;;;21.80;95.30;;;23.08;55.49;100587.78;5065192;29;20491;-58
2022/06/22 06:48:36;;;;;;;7.95;3.38;;;22.20;94.90;;;23.44;53.71;100587.03;5065544;29;20085;-57
2022/06/22 06:51:14;;;;;;;6.78;3.30;;;22.60;93.70;;;23.83;52.60;100597.75;5065137;29;20052;-57
2022/06/22 06:53:52;;;;;;;5.47;3.00;;;22.90;92.90;;;24.02;50.87;100600.84;5065992;29;20068;-59
2022/06/22 06:56:29;;;;;;;6.03;3.13;;;23.10;91.40;;;24.15;50.27;100599.66;5065696;29;20426;-57
2022/06/22 06:59:05;;;;;;;5.53;3.10;;;23.20;90.50;;;24.25;49.74;100619.81;5066178;29;20082;-56
2022/06/22 07:01:39;;;;;;;6.50;2.88;;;23.40;89.90;;;24.38;49.46;100625.75;5065813;29;20056;-56
2022/06/22 07:04:18;;;;;;;6.32;3.00;;;23.50;88.60;;;24.47;49.42;100633.53;5065677;29;20058;-58
2022/06/22 07:06:51;;;;;;;6.10;2.70;;;23.60;88.00;;;24.68;47.59;100628.56;5065465;29;20048;-56
2022/06/22 07:09:29;;;;;;;6.53;2.97;;;23.80;85.50;;;24.82;47.53;100621.06;5065209;29;20421;-55
2022/06/22 07:12:08;;;;;;;6.57;2.92;;;23.90;84.20;;;25.07;46.09;100624.84;5066077;29;20060;-57
2022/06/22 07:14:42;;;;;;;8.30;3.00;;;24.10;82.30;;;25.17;45.95;100623.69;5065906;29;20059;-60
2022/06/22 07:17:19;;;;;;;5.93;2.65;;;24.20;81.70;;;25.15;45.95;100614.84;5065741;29;20071;-56
2022/06/22 07:19:58;;;;;;;4.82;2.25;;;24.20;81.00;;;24.93;46.60;100618.13;5072500;29;20053;-56
2022/06/22 07:22:35;;;;;;;5.55;2.50;;;24.10;80.90;;;24.65;46.87;100616.19;5065959;29;20063;-57
2022/06/22 07:25:14;;;;;;;3.70;1.92;;;23.90;80.60;;;24.25;47.55;100616.25;5065895;29;20058;-58
2022/06/22 07:27:54;;;;;;;3.83;2.00;;;23.60;80.90;;;23.88;48.40;100619.81;5065819;29;20061;-67
2022/06/22 07:30:37;;;;;;;4.22;2.00;;;23.30;81.80;;;23.62;49.52;100612.41;5065801;29;20063;-70
2022/06/22 07:33:18;;;;;;;5.80;2.40;;;23.00;83.80;;;23.35;50.03;100613.84;5066070;29;20063;-69
2022/06/22 07:36:00;;;;;;;6.45;2.28;;;22.80;83.70;;;23.22;50.61;100618.53;5065703;29;20139;-71
2022/06/22 07:38:48;;;;;;;4.47;2.10;;;22.70;84.50;;;23.26;50.96;100619.31;5065706;29;20063;-63
2022/06/22 07:41:23;;;;;;;4.07;2.20;;;22.60;85.50;;;23.45;51.11;100620.69;5065762;29;20056;-65
2022/06/22 07:43:59;;;;;;;5.50;2.55;;;22.60;86.30;;;23.65;51.18;100614.09;5065708;29;20049;-65
2022/06/22 07:46:43;;;;;;;4.85;2.35;;;22.70;86.90;;;23.93;51.63;100620.59;5066508;29;20083;-65
2022/06/22 07:49:20;;;;;;;7.55;3.10;;;22.90;87.70;;;24.27;51.26;100606.47;5069693;29;20049;-64
2022/06/22 07:51:58;;;;;;;6.07;2.78;;;23.20;87.90;;;24.61;50.57;100614.53;5069824;29;20609;-65
2022/06/22 07:54:35;;;;;;;5.13;2.72;;;23.40;87.40;;;24.82;49.25;100605.94;5069399;29;20053;-64
2022/06/22 07:57:19;;;;;;;4.80;2.83;;;23.60;85.80;;;24.77;48.47;100601.66;5069363;29;20062;-70
2022/06/22 07:59:56;;;;;;;5.70;2.53;;;23.70;84.20;;;24.77;49.20;100599.84;5069560;29;20053;-70
2022/06/22 08:02:56;;;;;;;3.85;2.42;;;23.70;84.50;;;24.75;49.55;100598.16;5069461;29;20058;-69
2022/06/22 08:05:31;;;;;;;;;;;23.70;84.80;;;24.79;49.40;100599.84;5068984;29;20139;-70
2022/06/22 08:08:12;;;;;;;4.20;2.30;;;23.70;84.90;;;24.95;48.74;100603.81;5072438;29;19927;-66
2022/06/22 08:10:49;;;;;;;4.43;2.20;;;23.70;85.10;;;25.37;48.93;100598.25;5080685;29;20486;-70
2022/06/22 08:13:24;;;;;;;6.25;2.90;;;23.90;85.60;;;25.84;47.74;100603.97;5069187;29;20079;-68
2022/06/22 08:16:02;;;;;;;7.28;2.50;;;24.20;84.70;;;26.33;45.67;100605.91;5068654;29;20516;-67
2022/06/22 08:18:35;;;;;;;3.22;2.20;;;24.50;82.70;;;26.93;44.84;100603.88;5068808;29;20049;-67
2022/06/22 08:21:10;;;;;;;4.60;2.33;;;24.90;82.00;;;27.48;43.26;100604.56;5068774;29;20070;-67
2022/06/22 08:23:45;;;;;;;5.72;2.70;;;25.20;80.10;;;28.05;41.86;100614.84;5068783;29;20053;-69
2022/06/22 08:26:23;;;;;;;4.57;2.00;;;25.50;78.90;;;28.58;41.27;100618.94;5068740;29;20495;-67
2022/06/22 08:28:56;;;;;;;3.95;2.20;;;25.80;78.00;;;29.42;40.29;100613.44;5068616;29;20116;-67
2022/06/22 08:31:36;;;;;;;6.20;2.15;;;26.20;77.90;;;30.50;39.33;100615.41;5068723;29;20143;-66
2022/06/22 08:34:15;;;;;;;4.28;2.30;;;26.80;78.10;;;31.52;36.94;100611.84;5068754;29;20060;-66
2022/06/22 08:36:53;;;;;;;4.78;2.25;;;27.40;75.40;;;32.10;35.04;100619.38;5062452;29;20054;-66
2022/06/22 08:39:33;;;;;;;4.75;2.13;;;27.80;72.50;;;33.01;33.50;100612.25;5067559;29;20056;-70
2022/06/22 08:42:22;;;;;;;4.22;1.98;;;28.30;70.70;;;34.21;31.89;100630.69;5068323;29;20494;-68
2022/06/22 08:45:13;;;;;;;4.13;2.10;;;29.10;68.60;;;35.45;29.67;100626.75;5070285;29;20040;-67
2022/06/22 08:48:46;;;;;;;1.98;1.40;;;30.10;65.60;;;36.73;26.72;100632.63;5068755;29;20045;-67
2022/06/22 08:51:54;;;;;;;2.45;1.10;;;31.30;60.50;;;37.64;25.08;100621.81;5027645;29;20048;-68
2022/06/22 08:54:46;;;;;;;2.17;1.15;;;32.40;56.50;;;38.27;24.02;100631.97;5048855;29;20499;-68
2022/06/22 08:57:26;;;;;;;2.60;1.40;;;33.10;54.30;;;38.61;22.95;100620.97;5061513;29;20058;-70
2022/06/22 09:00:11;;;;;;;1.70;1.17;;;33.60;52.00;;;39.00;23.00;100616.69;5060247;29;20516;-68
2022/06/22 09:03:31;;;;;;;4.32;1.45;;;34.00;51.60;;;39.49;22.34;100614.22;5077679;29;20475;-68
2022/06/22 09:06:50;;;;;;;3.22;1.30;;;34.50;50.20;;;39.72;22.26;100607.59;5038128;29;20061;-69
2022/06/22 09:10:05;;;;;;;2.17;1.10;;;34.90;50.00;;;39.89;22.07;100608.75;5033453;29;20052;-69
2022/06/22 09:12:56;;;;;;;2.78;1.10;;;35.00;49.70;;;40.12;20.82;100599.38;5049605;29;20059;-70
2022/06/22 09:15:42;;;;;;;1.70;0.98;;;35.20;47.80;;;40.15;19.99;100592.75;5067987;29;20088;-70
2022/06/22 09:18:42;;;;;;;1.95;0.73;;;35.30;46.40;;;40.06;19.18;100594.47;5066840;29;20061;-71
2022/06/22 09:21:32;;;;;;;0.70;0.70;;;35.30;45.20;;;39.58;19.37;100588.81;5063333;29;20485;-69
2022/06/22 09:24:14;;;;;;;3.15;1.00;;;35.10;44.20;;;38.95;19.35;100586.25;5062296;29;20060;-69
2022/06/22 09:27:10;;;;;;;1.10;0.75;;;34.90;43.80;;;38.34;20.63;100583.31;5067987;29;20052;-71
2022/06/22 09:30:15;;;;;;;1.75;0.98;;;34.60;44.80;;;37.74;21.25;100577.41;5067941;29;20048;-71
2022/06/22 09:33:13;;;;;;;1.83;0.82;;;34.30;45.60;;;37.01;22.54;100577.91;5068205;29;20498;-67
2022/06/22 09:36:39;;;;;;;1.55;0.80;;;34.00;47.10;;;35.89;23.15;100575.56;5067742;29;20048;-69
2022/06/22 09:39:42;;;;;;;1.85;1.00;;;33.50;46.30;;;34.73;24.41;100572.19;5064334;29;20055;-68
2022/06/22 09:42:56;;;;;;;1.10;1.00;;;32.80;47.00;;;33.40;25.70;100575.63;5066427;29;20524;-64
2022/06/22 09:45:53;;;;;;;2.25;1.05;;;32.00;47.70;;;32.22;27.21;100579.19;5067366;29;20494;-64
2022/06/22 09:48:58;;;;;;;1.10;0.90;;;31.20;48.40;;;31.54;28.53;100582.13;5067935;29;20053;-64
2022/06/22 09:52:14;;;;;;;1.52;0.90;;;30.60;49.70;;;31.15;29.27;100567.19;5231929;23;20263;-68
2022/06/22 09:58:54;;;;;;;1.77;1.15;;;29.80;51.30;;;30.75;30.45;100561.25;5048207;29;20104;-69
2022/06/22 10:01:34;;;;;;;1.23;1.10;;;29.60;51.80;;;30.71;30.51;100558.78;5047990;29;20053;-70
2022/06/22 10:04:58;;;;;;;1.10;1.00;;;29.50;52.60;;;30.63;30.82;100563.66;5048191;29;20422;-70
2022/06/22 10:07:50;;;;;;;2.53;1.15;;;29.40;52.10;;;30.46;30.03;100556.50;5048012;29;20088;-70
2022/06/22 10:10:39;;;;;;;2.97;1.17;;;29.30;51.00;;;30.24;30.12;100549.50;5047204;29;20052;-72
2022/06/22 10:13:46;;;;;;;1.90;1.40;;;29.20;51.10;;;29.93;30.31;100544.78;5048129;29;20081;-73
2022/06/22 10:16:40;;;;;;;1.30;1.08;;;29.00;51.20;;;29.86;30.45;100535.25;5047689;29;20093;-72
2022/06/22 10:19:30;;;;;;;1.75;1.08;;;28.90;51.50;;;29.89;30.95;100526.19;5040700;29;20113;-72
2022/06/22 10:22:18;;;;;;;1.25;1.00;;;28.90;51.80;;;30.05;31.87;100531.66;5028645;29;20053;-72
2022/06/22 10:25:13;;;;;;;1.48;1.25;;;29.00;53.80;;;30.13;30.91;100529.50;5039841;29;20133;-71
2022/06/22 10:28:18;;;;;;;0.82;0.82;;;29.00;51.90;;;30.15;31.07;100519.53;5047492;29;20306;-71
2022/06/22 10:31:04;;;;;;;1.45;1.10;;;29.00;52.10;;;29.99;30.47;100520.28;5047489;29;20128;-71
2022/06/22 10:34:00;;;;;;;1.10;1.00;;;29.00;51.20;;;29.95;31.15;100510.63;5029971;29;20483;-72
2022/06/22 10:37:20;;;;;;;2.75;1.23;;;29.00;51.90;;;29.95;31.08;100520.50;5028418;29;20470;-70
2022/06/22 10:46:23;;;;;;;1.42;1.00;;;28.90;51.40;;;29.72;30.56;100516.25;5047089;29;20080;-69
2022/06/22 10:49:24;;;;;;;1.60;1.00;;;28.80;51.50;;;29.78;31.03;100502.53;5047247;29;20053;-69
2022/06/22 10:52:23;;;;;;;1.80;0.98;;;28.80;52.00;;;29.86;31.34;100505.69;5046245;29;20095;-63
2022/06/22 10:55:18;;;;;;;;;;;28.90;52.30;;;29.94;31.42;100508.03;5047392;29;20061;-63
2022/06/22 10:58:17;;;;;;;1.25;1.02;;;28.90;52.20;;;30.02;30.77;100510.31;5042628;29;20396;-62
2022/06/22 11:01:11;;;;;;;1.50;1.00;;;29.00;51.70;;;29.98;30.07;100521.22;5044186;29;20045;-63
2022/06/22 11:04:30;;;;;;;1.20;1.10;;;29.00;51.10;;;29.87;29.62;100518.22;5043596;29;20089;-63
2022/06/22 11:07:50;;;;;;;1.30;1.20;;;28.90;50.50;;;29.77;29.58;100516.91;5027196;29;20114;-63
2022/06/22 11:10:48;;;;;;;1.80;1.10;;;28.90;50.30;;;29.89;30.77;100521.69;5036284;29;20074;-64
2022/06/22 11:13:48;;;;;;;1.73;1.10;;;28.90;51.50;;;30.06;30.74;100520.84;5046835;29;20140;-63
2022/06/22 11:16:40;;;;;;;1.13;1.10;;;29.00;51.60;;;30.07;30.70;100519.03;5042071;29;20068;-62
2022/06/22 11:19:45;;;;;;;2.38;1.02;;;29.10;52.40;;;30.19;31.06;100513.94;5046789;29;20388;-64
2022/06/22 11:22:31;;;;;;;2.42;1.30;;;29.20;52.40;;;30.19;29.49;100518.41;5046099;29;20510;-63
2022/06/22 11:32:23;;;;;;;1.92;1.10;;;29.20;49.10;;;29.72;29.10;100524.31;5046666;29;20437;-64
2022/06/22 11:35:44;;;;;;;1.10;1.00;;;29.00;49.30;;;29.70;29.07;100518.16;5046192;29;20053;-64
2022/06/22 11:38:43;;;;;;;0.90;0.75;;;28.90;49.30;;;29.80;28.77;100514.09;5046550;29;20084;-64
2022/06/22 11:41:37;;;;;;;1.48;0.95;;;28.90;48.80;;;29.89;29.11;100513.63;5046480;29;20495;-64
2022/06/22 11:44:40;;;;;;;2.75;1.25;;;29.00;49.80;;;29.87;29.98;100523.59;5046175;29;20160;-63
2022/06/22 11:47:22;;;;;;;1.27;1.17;;;29.00;50.70;;;29.73;30.27;100521.59;5041633;29;20088;-63
2022/06/22 11:50:06;;;;;;;1.20;1.00;;;28.90;50.60;;;29.76;29.75;100519.69;5046578;29;20049;-64
2022/06/22 11:53:07;;;;;;;1.20;0.90;;;28.80;50.60;;;29.81;29.88;100518.50;5043921;29;20096;-71